sensor_id;sensor_type;location;lat;lon;timestamp;P1;durP1;ratioP1;P2;durP2;ratioP2
45392;SDS011;31129;44.810;10.334;2023-12-07T00:01:37;4.53;;;3.03;;
45392;SDS011;31129;44.810;10.334;2023-12-07T00:04:03;4.20;;;2.65;;
45392;SDS011;31129;44.810;10.334;2023-12-07T00:06:29;4.05;;;2.92;;
45392;SDS011;31129;44.810;10.334;2023-12-07T00:08:54;4.18;;;2.88;;
45392;SDS011;31129;44.810;10.334;2023-12-07T00:11:21;4.82;;;2.85;;
45392;SDS011;31129;44.810;10.334;2023-12-07T00:13:48;5.75;;;3.35;;
45392;SDS011;31129;44.810;10.334;2023-12-07T00:16:13;5.10;;;3.20;;
45392;SDS011;31129;44.810;10.334;2023-12-07T00:18:39;4.50;;;3.03;;
45392;SDS011;31129;44.810;10.334;2023-12-07T00:21:04;5.05;;;3.50;;
45392;SDS011;31129;44.810;10.334;2023-12-07T00:23:30;5.00;;;3.20;;
45392;SDS011;31129;44.810;10.334;2023-12-07T00:25:56;5.38;;;3.13;;
45392;SDS011;31129;44.810;10.334;2023-12-07T00:28:21;5.18;;;3.70;;
45392;SDS011;31129;44.810;10.334;2023-12-07T00:30:46;4.15;;;2.97;;
45392;SDS011;31129;44.810;10.334;2023-12-07T00:33:12;3.67;;;2.55;;
45392;SDS011;31129;44.810;10.334;2023-12-07T00:35:37;8.30;;;3.25;;
45392;SDS011;31129;44.810;10.334;2023-12-07T00:38:03;7.28;;;2.90;;
45392;SDS011;31129;44.810;10.334;2023-12-07T00:40:28;5.15;;;2.72;;
45392;SDS011;31129;44.810;10.334;2023-12-07T00:42:54;4.25;;;2.85;;
45392;SDS011;31129;44.810;10.334;2023-12-07T00:45:19;4.75;;;2.75;;
45392;SDS011;31129;44.810;10.334;2023-12-07T00:47:45;4.88;;;3.17;;
45392;SDS011;31129;44.810;10.334;2023-12-07T00:50:14;5.28;;;2.88;;
45392;SDS011;31129;44.810;10.334;2023-12-07T00:52:40;4.43;;;2.88;;
45392;SDS011;31129;44.810;10.334;2023-12-07T00:55:06;4.32;;;2.90;;
45392;SDS011;31129;44.810;10.334;2023-12-07T00:57:31;5.05;;;3.20;;
45392;SDS011;31129;44.810;10.334;2023-12-07T00:59:57;4.03;;;2.97;;
45392;SDS011;31129;44.810;10.334;2023-12-07T01:02:22;4.97;;;3.50;;
45392;SDS011;31129;44.810;10.334;2023-12-07T01:04:48;5.03;;;3.50;;
45392;SDS011;31129;44.810;10.334;2023-12-07T01:07:14;4.65;;;3.22;;
45392;SDS011;31129;44.810;10.334;2023-12-07T01:09:40;6.63;;;3.22;;
45392;SDS011;31129;44.810;10.334;2023-12-07T01:12:05;5.50;;;3.30;;
45392;SDS011;31129;44.810;10.334;2023-12-07T01:14:31;4.45;;;2.83;;
45392;SDS011;31129;44.810;10.334;2023-12-07T01:16:59;5.95;;;3.08;;
45392;SDS011;31129;44.810;10.334;2023-12-07T01:21:50;6.15;;;3.45;;
45392;SDS011;31129;44.810;10.334;2023-12-07T01:24:16;5.60;;;3.33;;
45392;SDS011;31129;44.810;10.334;2023-12-07T01:26:41;6.07;;;3.65;;
45392;SDS011;31129;44.810;10.334;2023-12-07T01:29:07;5.03;;;3.47;;
45392;SDS011;31129;44.810;10.334;2023-12-07T01:31:35;5.15;;;3.78;;
45392;SDS011;31129;44.810;10.334;2023-12-07T01:34:01;4.95;;;3.60;;
45392;SDS011;31129;44.810;10.334;2023-12-07T01:36:26;5.53;;;3.30;;
45392;SDS011;31129;44.810;10.334;2023-12-07T01:38:52;5.07;;;2.88;;
45392;SDS011;31129;44.810;10.334;2023-12-07T01:41:20;7.53;;;3.80;;
45392;SDS011;31129;44.810;10.334;2023-12-07T01:43:46;4.78;;;3.40;;
45392;SDS011;31129;44.810;10.334;2023-12-07T01:46:11;6.03;;;3.67;;
45392;SDS011;31129;44.810;10.334;2023-12-07T01:48:38;5.57;;;3.55;;
45392;SDS011;31129;44.810;10.334;2023-12-07T01:51:03;6.18;;;3.65;;
45392;SDS011;31129;44.810;10.334;2023-12-07T01:53:29;6.32;;;3.92;;
45392;SDS011;31129;44.810;10.334;2023-12-07T01:58:23;7.72;;;3.13;;
45392;SDS011;31129;44.810;10.334;2023-12-07T02:00:49;6.25;;;3.88;;
45392;SDS011;31129;44.810;10.334;2023-12-07T02:03:17;5.78;;;3.47;;
45392;SDS011;31129;44.810;10.334;2023-12-07T02:08:11;5.38;;;3.40;;
45392;SDS011;31129;44.810;10.334;2023-12-07T02:10:36;5.13;;;3.72;;
45392;SDS011;31129;44.810;10.334;2023-12-07T02:13:02;5.35;;;3.25;;
45392;SDS011;31129;44.810;10.334;2023-12-07T02:15:28;4.90;;;3.20;;
45392;SDS011;31129;44.810;10.334;2023-12-07T02:23:18;3.78;;;3.20;;
45392;SDS011;31129;44.810;10.334;2023-12-07T02:28:46;5.00;;;2.83;;
45392;SDS011;31129;44.810;10.334;2023-12-07T02:31:12;5.07;;;3.25;;
45392;SDS011;31129;44.810;10.334;2023-12-07T02:33:37;4.50;;;3.10;;
45392;SDS011;31129;44.810;10.334;2023-12-07T02:36:03;4.20;;;2.95;;
45392;SDS011;31129;44.810;10.334;2023-12-07T02:38:30;4.50;;;3.03;;
45392;SDS011;31129;44.810;10.334;2023-12-07T02:40:56;5.00;;;3.20;;
45392;SDS011;31129;44.810;10.334;2023-12-07T02:43:24;5.07;;;3.25;;
45392;SDS011;31129;44.810;10.334;2023-12-07T02:45:49;4.28;;;3.10;;
45392;SDS011;31129;44.810;10.334;2023-12-07T02:48:15;5.38;;;3.55;;
45392;SDS011;31129;44.810;10.334;2023-12-07T02:50:42;6.35;;;4.15;;
45392;SDS011;31129;44.810;10.334;2023-12-07T02:53:08;3.70;;;3.20;;
45392;SDS011;31129;44.810;10.334;2023-12-07T02:55:33;4.05;;;2.80;;
45392;SDS011;31129;44.810;10.334;2023-12-07T02:57:59;4.20;;;3.10;;
45392;SDS011;31129;44.810;10.334;2023-12-07T03:00:25;4.93;;;3.20;;
45392;SDS011;31129;44.810;10.334;2023-12-07T03:02:50;4.10;;;3.13;;
45392;SDS011;31129;44.810;10.334;2023-12-07T03:05:16;4.32;;;3.25;;
45392;SDS011;31129;44.810;10.334;2023-12-07T03:07:42;4.32;;;3.05;;
45392;SDS011;31129;44.810;10.334;2023-12-07T03:10:07;5.53;;;3.85;;
45392;SDS011;31129;44.810;10.334;2023-12-07T03:12:33;4.40;;;3.13;;
45392;SDS011;31129;44.810;10.334;2023-12-07T03:14:58;5.60;;;3.30;;
45392;SDS011;31129;44.810;10.334;2023-12-07T03:17:24;5.97;;;3.30;;
45392;SDS011;31129;44.810;10.334;2023-12-07T03:19:49;5.63;;;3.80;;
45392;SDS011;31129;44.810;10.334;2023-12-07T03:22:14;6.22;;;3.65;;
45392;SDS011;31129;44.810;10.334;2023-12-07T03:24:40;5.55;;;3.50;;
45392;SDS011;31129;44.810;10.334;2023-12-07T03:27:11;8.13;;;3.70;;
45392;SDS011;31129;44.810;10.334;2023-12-07T03:29:36;5.53;;;3.30;;
45392;SDS011;31129;44.810;10.334;2023-12-07T03:32:02;8.13;;;4.00;;
45392;SDS011;31129;44.810;10.334;2023-12-07T03:34:30;5.90;;;3.63;;
45392;SDS011;31129;44.810;10.334;2023-12-07T03:36:56;4.50;;;3.15;;
45392;SDS011;31129;44.810;10.334;2023-12-07T03:39:21;5.90;;;3.72;;
45392;SDS011;31129;44.810;10.334;2023-12-07T03:41:48;6.40;;;3.53;;
45392;SDS011;31129;44.810;10.334;2023-12-07T03:44:14;5.32;;;3.75;;
45392;SDS011;31129;44.810;10.334;2023-12-07T03:46:40;7.70;;;4.32;;
45392;SDS011;31129;44.810;10.334;2023-12-07T03:49:05;7.00;;;3.47;;
45392;SDS011;31129;44.810;10.334;2023-12-07T03:51:34;7.00;;;3.70;;
45392;SDS011;31129;44.810;10.334;2023-12-07T03:57:07;7.43;;;4.70;;
45392;SDS011;31129;44.810;10.334;2023-12-07T03:59:35;9.30;;;4.60;;
45392;SDS011;31129;44.810;10.334;2023-12-07T04:02:01;8.23;;;4.50;;
45392;SDS011;31129;44.810;10.334;2023-12-07T04:04:27;7.00;;;4.72;;
45392;SDS011;31129;44.810;10.334;2023-12-07T04:06:52;6.25;;;4.43;;
45392;SDS011;31129;44.810;10.334;2023-12-07T04:09:21;6.93;;;4.53;;
45392;SDS011;31129;44.810;10.334;2023-12-07T04:14:11;6.95;;;4.75;;
45392;SDS011;31129;44.810;10.334;2023-12-07T04:16:37;6.97;;;4.80;;
45392;SDS011;31129;44.810;10.334;2023-12-07T04:19:02;7.47;;;4.32;;
45392;SDS011;31129;44.810;10.334;2023-12-07T04:23:56;8.40;;;5.13;;
45392;SDS011;31129;44.810;10.334;2023-12-07T04:26:23;5.68;;;3.75;;
45392;SDS011;31129;44.810;10.334;2023-12-07T04:28:48;6.30;;;4.00;;
45392;SDS011;31129;44.810;10.334;2023-12-07T04:31:14;5.55;;;3.50;;
45392;SDS011;31129;44.810;10.334;2023-12-07T04:33:39;6.30;;;3.50;;
45392;SDS011;31129;44.810;10.334;2023-12-07T04:38:33;5.00;;;3.35;;
45392;SDS011;31129;44.810;10.334;2023-12-07T04:40:59;8.10;;;3.95;;
45392;SDS011;31129;44.810;10.334;2023-12-07T04:43:24;6.35;;;3.60;;
45392;SDS011;31129;44.810;10.334;2023-12-07T04:45:52;7.78;;;4.07;;
45392;SDS011;31129;44.810;10.334;2023-12-07T04:48:18;5.13;;;3.08;;
45392;SDS011;31129;44.810;10.334;2023-12-07T04:50:43;4.00;;;2.85;;
45392;SDS011;31129;44.810;10.334;2023-12-07T04:53:09;4.38;;;2.75;;
45392;SDS011;31129;44.810;10.334;2023-12-07T04:58:03;4.20;;;2.50;;
45392;SDS011;31129;44.810;10.334;2023-12-07T05:00:31;7.30;;;3.20;;
45392;SDS011;31129;44.810;10.334;2023-12-07T05:05:22;7.13;;;4.25;;
45392;SDS011;31129;44.810;10.334;2023-12-07T05:07:49;4.72;;;3.00;;
45392;SDS011;31129;44.810;10.334;2023-12-07T05:10:14;5.13;;;3.60;;
45392;SDS011;31129;44.810;10.334;2023-12-07T05:12:40;6.03;;;3.10;;
45392;SDS011;31129;44.810;10.334;2023-12-07T05:15:08;4.68;;;2.83;;
45392;SDS011;31129;44.810;10.334;2023-12-07T05:17:34;6.82;;;2.67;;
45392;SDS011;31129;44.810;10.334;2023-12-07T05:20:00;6.90;;;3.10;;
45392;SDS011;31129;44.810;10.334;2023-12-07T05:22:25;4.95;;;2.90;;
45392;SDS011;31129;44.810;10.334;2023-12-07T05:24:51;4.05;;;2.38;;
45392;SDS011;31129;44.810;10.334;2023-12-07T05:27:19;3.70;;;2.30;;
45392;SDS011;31129;44.810;10.334;2023-12-07T05:29:44;3.55;;;2.45;;
45392;SDS011;31129;44.810;10.334;2023-12-07T05:32:10;4.38;;;2.35;;
45392;SDS011;31129;44.810;10.334;2023-12-07T05:34:35;4.95;;;2.55;;
45392;SDS011;31129;44.810;10.334;2023-12-07T05:37:01;3.25;;;2.00;;
45392;SDS011;31129;44.810;10.334;2023-12-07T05:39:27;5.15;;;2.85;;
45392;SDS011;31129;44.810;10.334;2023-12-07T05:41:52;3.78;;;1.90;;
45392;SDS011;31129;44.810;10.334;2023-12-07T05:44:18;3.22;;;2.00;;
45392;SDS011;31129;44.810;10.334;2023-12-07T05:46:47;3.58;;;2.58;;
45392;SDS011;31129;44.810;10.334;2023-12-07T05:49:12;3.15;;;2.25;;
45392;SDS011;31129;44.810;10.334;2023-12-07T05:51:38;4.20;;;2.50;;
45392;SDS011;31129;44.810;10.334;2023-12-07T05:54:03;2.75;;;1.95;;
45392;SDS011;31129;44.810;10.334;2023-12-07T05:56:29;3.30;;;1.75;;
45392;SDS011;31129;44.810;10.334;2023-12-07T05:58:56;3.35;;;1.90;;
45392;SDS011;31129;44.810;10.334;2023-12-07T06:01:22;3.65;;;1.90;;
45392;SDS011;31129;44.810;10.334;2023-12-07T06:03:47;2.55;;;1.95;;
45392;SDS011;31129;44.810;10.334;2023-12-07T06:06:13;2.92;;;2.10;;
45392;SDS011;31129;44.810;10.334;2023-12-07T06:08:38;3.15;;;1.77;;
45392;SDS011;31129;44.810;10.334;2023-12-07T06:11:04;2.63;;;2.00;;
45392;SDS011;31129;44.810;10.334;2023-12-07T06:13:33;2.90;;;1.80;;
45392;SDS011;31129;44.810;10.334;2023-12-07T06:15:58;4.38;;;1.75;;
45392;SDS011;31129;44.810;10.334;2023-12-07T06:18:26;2.35;;;1.67;;
45392;SDS011;31129;44.810;10.334;2023-12-07T06:20:51;2.65;;;1.73;;
45392;SDS011;31129;44.810;10.334;2023-12-07T06:23:17;3.65;;;2.25;;
45392;SDS011;31129;44.810;10.334;2023-12-07T06:25:43;3.00;;;2.03;;
45392;SDS011;31129;44.810;10.334;2023-12-07T06:28:08;2.63;;;1.80;;
45392;SDS011;31129;44.810;10.334;2023-12-07T06:30:34;4.22;;;2.15;;
45392;SDS011;31129;44.810;10.334;2023-12-07T06:33:00;2.97;;;1.90;;
45392;SDS011;31129;44.810;10.334;2023-12-07T06:35:25;3.78;;;2.13;;
45392;SDS011;31129;44.810;10.334;2023-12-07T06:37:51;3.65;;;2.33;;
45392;SDS011;31129;44.810;10.334;2023-12-07T06:40:16;4.50;;;1.90;;
45392;SDS011;31129;44.810;10.334;2023-12-07T06:42:42;2.88;;;2.25;;
45392;SDS011;31129;44.810;10.334;2023-12-07T06:45:08;7.90;;;2.53;;
45392;SDS011;31129;44.810;10.334;2023-12-07T06:47:38;3.58;;;2.03;;
45392;SDS011;31129;44.810;10.334;2023-12-07T06:50:04;5.00;;;2.00;;
45392;SDS011;31129;44.810;10.334;2023-12-07T06:52:33;3.75;;;2.10;;
45392;SDS011;31129;44.810;10.334;2023-12-07T06:54:59;6.28;;;2.30;;
45392;SDS011;31129;44.810;10.334;2023-12-07T06:57:25;3.22;;;1.90;;
45392;SDS011;31129;44.810;10.334;2023-12-07T06:59:51;2.85;;;2.00;;
45392;SDS011;31129;44.810;10.334;2023-12-07T07:02:16;3.70;;;2.03;;
45392;SDS011;31129;44.810;10.334;2023-12-07T07:04:42;5.35;;;2.55;;
45392;SDS011;31129;44.810;10.334;2023-12-07T07:07:09;4.68;;;2.20;;
45392;SDS011;31129;44.810;10.334;2023-12-07T07:09:34;5.22;;;2.08;;
45392;SDS011;31129;44.810;10.334;2023-12-07T07:12:00;10.38;;;3.05;;
45392;SDS011;31129;44.810;10.334;2023-12-07T07:14:25;3.58;;;2.45;;
45392;SDS011;31129;44.810;10.334;2023-12-07T07:16:51;7.38;;;2.60;;
45392;SDS011;31129;44.810;10.334;2023-12-07T07:19:17;9.43;;;2.55;;
45392;SDS011;31129;44.810;10.334;2023-12-07T07:21:43;7.78;;;3.10;;
45392;SDS011;31129;44.810;10.334;2023-12-07T07:24:09;5.18;;;2.70;;
45392;SDS011;31129;44.810;10.334;2023-12-07T07:26:34;11.40;;;3.42;;
45392;SDS011;31129;44.810;10.334;2023-12-07T07:29:00;8.60;;;2.85;;
45392;SDS011;31129;44.810;10.334;2023-12-07T07:31:25;6.90;;;2.67;;
45392;SDS011;31129;44.810;10.334;2023-12-07T07:33:51;8.55;;;3.08;;
45392;SDS011;31129;44.810;10.334;2023-12-07T07:36:20;4.75;;;2.45;;
45392;SDS011;31129;44.810;10.334;2023-12-07T07:38:45;10.88;;;2.75;;
45392;SDS011;31129;44.810;10.334;2023-12-07T07:41:14;9.35;;;2.67;;
45392;SDS011;31129;44.810;10.334;2023-12-07T07:43:39;13.88;;;4.10;;
45392;SDS011;31129;44.810;10.334;2023-12-07T07:46:05;6.75;;;2.55;;
45392;SDS011;31129;44.810;10.334;2023-12-07T07:48:31;6.57;;;3.05;;
45392;SDS011;31129;44.810;10.334;2023-12-07T07:50:56;5.97;;;3.05;;
45392;SDS011;31129;44.810;10.334;2023-12-07T07:53:23;8.88;;;3.42;;
45392;SDS011;31129;44.810;10.334;2023-12-07T07:55:48;6.30;;;3.42;;
45392;SDS011;31129;44.810;10.334;2023-12-07T07:58:14;6.97;;;3.42;;
45392;SDS011;31129;44.810;10.334;2023-12-07T08:00:42;8.25;;;3.28;;
45392;SDS011;31129;44.810;10.334;2023-12-07T08:03:08;6.78;;;3.42;;
45392;SDS011;31129;44.810;10.334;2023-12-07T08:05:34;10.32;;;3.38;;
45392;SDS011;31129;44.810;10.334;2023-12-07T08:08:02;8.18;;;3.47;;
45392;SDS011;31129;44.810;10.334;2023-12-07T08:10:28;7.25;;;3.67;;
45392;SDS011;31129;44.810;10.334;2023-12-07T08:12:53;7.10;;;3.47;;
45392;SDS011;31129;44.810;10.334;2023-12-07T08:15:19;12.15;;;3.28;;
45392;SDS011;31129;44.810;10.334;2023-12-07T08:17:45;6.50;;;3.20;;
45392;SDS011;31129;44.810;10.334;2023-12-07T08:20:11;9.88;;;3.35;;
45392;SDS011;31129;44.810;10.334;2023-12-07T08:22:38;7.57;;;3.67;;
45392;SDS011;31129;44.810;10.334;2023-12-07T08:25:04;8.20;;;3.30;;
45392;SDS011;31129;44.810;10.334;2023-12-07T08:27:31;7.00;;;3.33;;
45392;SDS011;31129;44.810;10.334;2023-12-07T08:29:57;4.63;;;3.25;;
45392;SDS011;31129;44.810;10.334;2023-12-07T08:32:23;6.53;;;3.30;;
45392;SDS011;31129;44.810;10.334;2023-12-07T08:34:51;7.70;;;3.03;;
45392;SDS011;31129;44.810;10.334;2023-12-07T08:37:17;8.43;;;3.33;;
45392;SDS011;31129;44.810;10.334;2023-12-07T08:39:43;5.20;;;3.22;;
45392;SDS011;31129;44.810;10.334;2023-12-07T08:42:08;5.38;;;3.25;;
45392;SDS011;31129;44.810;10.334;2023-12-07T08:44:33;6.50;;;3.60;;
45392;SDS011;31129;44.810;10.334;2023-12-07T08:47:02;6.40;;;3.40;;
45392;SDS011;31129;44.810;10.334;2023-12-07T08:49:33;7.00;;;4.15;;
45392;SDS011;31129;44.810;10.334;2023-12-07T08:52:01;8.80;;;3.40;;
45392;SDS011;31129;44.810;10.334;2023-12-07T08:54:28;6.22;;;3.15;;
45392;SDS011;31129;44.810;10.334;2023-12-07T08:56:53;6.13;;;3.10;;
45392;SDS011;31129;44.810;10.334;2023-12-07T08:59:19;5.95;;;3.30;;
45392;SDS011;31129;44.810;10.334;2023-12-07T09:01:44;8.65;;;3.35;;
45392;SDS011;31129;44.810;10.334;2023-12-07T09:04:10;8.82;;;3.22;;
45392;SDS011;31129;44.810;10.334;2023-12-07T09:06:38;7.78;;;3.28;;
45392;SDS011;31129;44.810;10.334;2023-12-07T09:09:04;5.70;;;3.33;;
45392;SDS011;31129;44.810;10.334;2023-12-07T09:11:30;7.57;;;3.33;;
45392;SDS011;31129;44.810;10.334;2023-12-07T09:13:55;6.18;;;3.50;;
45392;SDS011;31129;44.810;10.334;2023-12-07T09:16:21;6.47;;;4.03;;
45392;SDS011;31129;44.810;10.334;2023-12-07T09:18:46;6.22;;;3.75;;
45392;SDS011;31129;44.810;10.334;2023-12-07T09:21:12;5.32;;;3.67;;
45392;SDS011;31129;44.810;10.334;2023-12-07T09:23:37;11.20;;;4.40;;
45392;SDS011;31129;44.810;10.334;2023-12-07T09:26:03;5.55;;;4.00;;
45392;SDS011;31129;44.810;10.334;2023-12-07T09:28:29;8.05;;;4.47;;
45392;SDS011;31129;44.810;10.334;2023-12-07T09:30:55;9.70;;;4.30;;
45392;SDS011;31129;44.810;10.334;2023-12-07T09:33:20;11.98;;;5.20;;
45392;SDS011;31129;44.810;10.334;2023-12-07T09:35:46;12.90;;;4.93;;
45392;SDS011;31129;44.810;10.334;2023-12-07T09:38:11;9.77;;;5.47;;
45392;SDS011;31129;44.810;10.334;2023-12-07T09:40:39;9.75;;;4.82;;
45392;SDS011;31129;44.810;10.334;2023-12-07T09:43:05;11.15;;;4.82;;
45392;SDS011;31129;44.810;10.334;2023-12-07T09:45:31;15.35;;;5.28;;
45392;SDS011;31129;44.810;10.334;2023-12-07T09:47:56;12.68;;;6.05;;
45392;SDS011;31129;44.810;10.334;2023-12-07T09:50:23;8.13;;;5.00;;
45392;SDS011;31129;44.810;10.334;2023-12-07T09:52:50;8.68;;;4.40;;
45392;SDS011;31129;44.810;10.334;2023-12-07T09:55:17;11.07;;;5.73;;
45392;SDS011;31129;44.810;10.334;2023-12-07T09:57:44;9.25;;;4.95;;
45392;SDS011;31129;44.810;10.334;2023-12-07T10:00:12;10.68;;;4.93;;
45392;SDS011;31129;44.810;10.334;2023-12-07T10:02:44;14.02;;;5.68;;
45392;SDS011;31129;44.810;10.334;2023-12-07T10:05:11;10.88;;;4.75;;
45392;SDS011;31129;44.810;10.334;2023-12-07T10:07:45;12.75;;;5.78;;
45392;SDS011;31129;44.810;10.334;2023-12-07T10:10:13;8.23;;;4.80;;
45392;SDS011;31129;44.810;10.334;2023-12-07T10:12:52;11.07;;;5.18;;
45392;SDS011;31129;44.810;10.334;2023-12-07T10:15:19;11.35;;;4.50;;
45392;SDS011;31129;44.810;10.334;2023-12-07T10:17:51;11.57;;;4.95;;
45392;SDS011;31129;44.810;10.334;2023-12-07T10:20:22;11.23;;;5.25;;
45392;SDS011;31129;44.810;10.334;2023-12-07T10:22:59;14.77;;;5.72;;
45392;SDS011;31129;44.810;10.334;2023-12-07T10:25:36;11.00;;;4.93;;
45392;SDS011;31129;44.810;10.334;2023-12-07T10:28:03;10.05;;;4.85;;
45392;SDS011;31129;44.810;10.334;2023-12-07T10:30:32;11.80;;;5.25;;
45392;SDS011;31129;44.810;10.334;2023-12-07T10:32:58;15.73;;;6.95;;
45392;SDS011;31129;44.810;10.334;2023-12-07T10:35:23;12.38;;;5.32;;
45392;SDS011;31129;44.810;10.334;2023-12-07T10:37:49;10.02;;;5.20;;
45392;SDS011;31129;44.810;10.334;2023-12-07T10:40:14;14.88;;;6.20;;
45392;SDS011;31129;44.810;10.334;2023-12-07T10:42:40;11.77;;;5.80;;
45392;SDS011;31129;44.810;10.334;2023-12-07T10:45:07;12.43;;;6.15;;
45392;SDS011;31129;44.810;10.334;2023-12-07T10:47:37;13.13;;;7.10;;
45392;SDS011;31129;44.810;10.334;2023-12-07T10:50:07;12.70;;;6.68;;
45392;SDS011;31129;44.810;10.334;2023-12-07T10:52:48;14.02;;;7.78;;
45392;SDS011;31129;44.810;10.334;2023-12-07T10:55:20;15.88;;;7.60;;
45392;SDS011;31129;44.810;10.334;2023-12-07T10:57:52;18.23;;;8.20;;
45392;SDS011;31129;44.810;10.334;2023-12-07T11:00:21;15.23;;;7.82;;
45392;SDS011;31129;44.810;10.334;2023-12-07T11:02:53;14.25;;;8.05;;
45392;SDS011;31129;44.810;10.334;2023-12-07T11:05:19;19.13;;;8.10;;
45392;SDS011;31129;44.810;10.334;2023-12-07T11:08:00;15.35;;;8.65;;
45392;SDS011;31129;44.810;10.334;2023-12-07T11:10:36;14.63;;;8.73;;
45392;SDS011;31129;44.810;10.334;2023-12-07T11:13:09;20.83;;;9.10;;
45392;SDS011;31129;44.810;10.334;2023-12-07T11:15:42;19.85;;;8.32;;
45392;SDS011;31129;44.810;10.334;2023-12-07T11:18:08;23.45;;;8.55;;
45392;SDS011;31129;44.810;10.334;2023-12-07T11:20:47;15.63;;;9.30;;
45392;SDS011;31129;44.810;10.334;2023-12-07T11:23:16;16.33;;;8.88;;
45392;SDS011;31129;44.810;10.334;2023-12-07T11:25:45;15.93;;;8.30;;
45392;SDS011;31129;44.810;10.334;2023-12-07T11:28:11;14.43;;;8.43;;
45392;SDS011;31129;44.810;10.334;2023-12-07T11:30:38;15.38;;;8.70;;
45392;SDS011;31129;44.810;10.334;2023-12-07T11:33:07;17.08;;;9.13;;
45392;SDS011;31129;44.810;10.334;2023-12-07T11:36:02;14.43;;;8.50;;
45392;SDS011;31129;44.810;10.334;2023-12-07T11:38:30;16.92;;;8.77;;
45392;SDS011;31129;44.810;10.334;2023-12-07T11:40:56;16.13;;;9.18;;
45392;SDS011;31129;44.810;10.334;2023-12-07T11:46:06;14.60;;;8.95;;
45392;SDS011;31129;44.810;10.334;2023-12-07T11:48:32;17.77;;;8.95;;
45392;SDS011;31129;44.810;10.334;2023-12-07T11:53:28;15.20;;;8.70;;
45392;SDS011;31129;44.810;10.334;2023-12-07T11:55:56;13.05;;;7.47;;
45392;SDS011;31129;44.810;10.334;2023-12-07T11:58:27;12.90;;;7.78;;
45392;SDS011;31129;44.810;10.334;2023-12-07T12:00:53;18.10;;;8.95;;
45392;SDS011;31129;44.810;10.334;2023-12-07T12:03:20;15.30;;;8.50;;
45392;SDS011;31129;44.810;10.334;2023-12-07T12:05:46;17.23;;;8.50;;
45392;SDS011;31129;44.810;10.334;2023-12-07T12:08:11;16.52;;;8.73;;
45392;SDS011;31129;44.810;10.334;2023-12-07T12:10:37;12.52;;;8.13;;
45392;SDS011;31129;44.810;10.334;2023-12-07T12:13:05;14.68;;;8.73;;
45392;SDS011;31129;44.810;10.334;2023-12-07T12:15:30;12.60;;;7.57;;
45392;SDS011;31129;44.810;10.334;2023-12-07T12:17:56;15.55;;;8.10;;
45392;SDS011;31129;44.810;10.334;2023-12-07T12:20:22;16.75;;;9.15;;
45392;SDS011;31129;44.810;10.334;2023-12-07T12:22:49;16.00;;;8.77;;
45392;SDS011;31129;44.810;10.334;2023-12-07T12:25:18;14.93;;;9.00;;
45392;SDS011;31129;44.810;10.334;2023-12-07T12:27:46;15.57;;;9.17;;
45392;SDS011;31129;44.810;10.334;2023-12-07T12:30:12;13.30;;;8.50;;
45392;SDS011;31129;44.810;10.334;2023-12-07T12:32:42;20.13;;;8.90;;
45392;SDS011;31129;44.810;10.334;2023-12-07T12:35:11;14.20;;;8.40;;
45392;SDS011;31129;44.810;10.334;2023-12-07T12:37:44;23.38;;;10.23;;
45392;SDS011;31129;44.810;10.334;2023-12-07T12:40:13;13.95;;;8.35;;
45392;SDS011;31129;44.810;10.334;2023-12-07T12:42:44;14.90;;;7.90;;
45392;SDS011;31129;44.810;10.334;2023-12-07T12:45:18;17.35;;;8.73;;
45392;SDS011;31129;44.810;10.334;2023-12-07T12:47:45;17.25;;;8.65;;
45392;SDS011;31129;44.810;10.334;2023-12-07T12:50:12;19.08;;;8.88;;
45392;SDS011;31129;44.810;10.334;2023-12-07T12:52:57;14.73;;;8.13;;
45392;SDS011;31129;44.810;10.334;2023-12-07T12:55:25;15.13;;;8.05;;
45392;SDS011;31129;44.810;10.334;2023-12-07T12:57:51;17.20;;;8.75;;
45392;SDS011;31129;44.810;10.334;2023-12-07T13:00:17;14.30;;;7.55;;
45392;SDS011;31129;44.810;10.334;2023-12-07T13:02:43;11.70;;;8.13;;
45392;SDS011;31129;44.810;10.334;2023-12-07T13:05:08;17.10;;;8.82;;
45392;SDS011;31129;44.810;10.334;2023-12-07T13:07:34;15.32;;;8.27;;
45392;SDS011;31129;44.810;10.334;2023-12-07T13:10:00;17.02;;;8.15;;
45392;SDS011;31129;44.810;10.334;2023-12-07T13:12:26;13.98;;;8.27;;
45392;SDS011;31129;44.810;10.334;2023-12-07T13:14:53;13.98;;;8.18;;
45392;SDS011;31129;44.810;10.334;2023-12-07T13:17:19;10.93;;;7.85;;
45392;SDS011;31129;44.810;10.334;2023-12-07T13:19:45;13.95;;;7.95;;
45392;SDS011;31129;44.810;10.334;2023-12-07T13:22:10;12.93;;;7.82;;
45392;SDS011;31129;44.810;10.334;2023-12-07T13:24:36;13.30;;;7.32;;
45392;SDS011;31129;44.810;10.334;2023-12-07T13:27:01;14.13;;;7.35;;
45392;SDS011;31129;44.810;10.334;2023-12-07T13:29:27;13.82;;;7.05;;
45392;SDS011;31129;44.810;10.334;2023-12-07T13:31:52;10.57;;;7.05;;
45392;SDS011;31129;44.810;10.334;2023-12-07T13:34:18;10.63;;;6.95;;
45392;SDS011;31129;44.810;10.334;2023-12-07T13:36:43;9.63;;;6.57;;
45392;SDS011;31129;44.810;10.334;2023-12-07T13:39:09;12.40;;;6.93;;
45392;SDS011;31129;44.810;10.334;2023-12-07T13:41:38;12.68;;;7.35;;
45392;SDS011;31129;44.810;10.334;2023-12-07T13:44:04;13.90;;;7.63;;
45392;SDS011;31129;44.810;10.334;2023-12-07T13:46:30;15.90;;;7.82;;
45392;SDS011;31129;44.810;10.334;2023-12-07T13:48:56;15.35;;;7.57;;
45392;SDS011;31129;44.810;10.334;2023-12-07T13:51:22;13.65;;;6.68;;
45392;SDS011;31129;44.810;10.334;2023-12-07T13:53:48;10.23;;;7.20;;
45392;SDS011;31129;44.810;10.334;2023-12-07T13:56:16;11.23;;;7.65;;
45392;SDS011;31129;44.810;10.334;2023-12-07T14:01:07;13.65;;;7.70;;
45392;SDS011;31129;44.810;10.334;2023-12-07T14:03:33;11.00;;;7.57;;
45392;SDS011;31129;44.810;10.334;2023-12-07T14:05:58;12.90;;;8.02;;
45392;SDS011;31129;44.810;10.334;2023-12-07T14:08:24;14.20;;;8.15;;
45392;SDS011;31129;44.810;10.334;2023-12-07T14:10:51;16.00;;;8.30;;
45392;SDS011;31129;44.810;10.334;2023-12-07T14:13:16;10.75;;;7.78;;
45392;SDS011;31129;44.810;10.334;2023-12-07T14:15:43;16.15;;;8.82;;
45392;SDS011;31129;44.810;10.334;2023-12-07T14:18:08;16.42;;;8.85;;
45392;SDS011;31129;44.810;10.334;2023-12-07T14:20:36;13.43;;;8.55;;
45392;SDS011;31129;44.810;10.334;2023-12-07T14:23:02;16.02;;;10.30;;
45392;SDS011;31129;44.810;10.334;2023-12-07T14:25:30;16.70;;;9.95;;
45392;SDS011;31129;44.810;10.334;2023-12-07T14:27:56;15.95;;;9.50;;
45392;SDS011;31129;44.810;10.334;2023-12-07T14:30:21;16.20;;;10.75;;
45392;SDS011;31129;44.810;10.334;2023-12-07T14:32:47;18.52;;;10.40;;
45392;SDS011;31129;44.810;10.334;2023-12-07T14:35:20;17.17;;;10.90;;
45392;SDS011;31129;44.810;10.334;2023-12-07T14:37:46;21.05;;;12.02;;
45392;SDS011;31129;44.810;10.334;2023-12-07T14:40:12;19.05;;;12.18;;
45392;SDS011;31129;44.810;10.334;2023-12-07T14:42:41;23.73;;;12.45;;
45392;SDS011;31129;44.810;10.334;2023-12-07T14:45:07;20.33;;;12.32;;
45392;SDS011;31129;44.810;10.334;2023-12-07T14:47:32;18.08;;;11.68;;
45392;SDS011;31129;44.810;10.334;2023-12-07T14:49:58;18.42;;;11.95;;
45392;SDS011;31129;44.810;10.334;2023-12-07T14:52:23;19.80;;;11.98;;
45392;SDS011;31129;44.810;10.334;2023-12-07T14:54:51;17.83;;;12.00;;
45392;SDS011;31129;44.810;10.334;2023-12-07T14:57:17;22.98;;;12.55;;
45392;SDS011;31129;44.810;10.334;2023-12-07T14:59:43;17.45;;;12.00;;
45392;SDS011;31129;44.810;10.334;2023-12-07T15:02:09;29.92;;;12.50;;
45392;SDS011;31129;44.810;10.334;2023-12-07T15:04:37;22.58;;;13.88;;